Time;durP1;ratioP1;P1;durP2;ratioP2;P2;SDS_P1;SDS_P2;PMS_P1;PMS_P2;Temp;Humidity;BMP_temperature;BMP_pressure;BME280_temperature;BME280_humidity;BME280_pressure;Samples;Min_cycle;Max_cycle;Signal;HPM_P1;HPM_P2
2021/05/10 00:01:45;;;;;;;1.13;1.03;;;;;;;;;;10234018;28;20449;-64
2021/05/10 00:06:42;;;;;;;2.17;1.67;;;;;;;;;;10260771;28;20077;-65
2021/05/10 00:11:46;;;;;;;3.30;2.50;;;;;;;;;;10233812;28;20501;-64
2021/05/10 00:16:43;;;;;;;1.95;1.75;;;;;;;;;;10258850;28;20054;-64
2021/05/10 00:21:41;;;;;;;3.83;1.33;;;;;;;;;;10229523;28;20482;-65
2021/05/10 00:26:38;;;;;;;3.27;1.87;;;;;;;;;;10253329;28;20038;-64
2021/05/10 00:31:36;;;;;;;2.40;1.73;;;;;;;;;;10243739;28;20041;-64
2021/05/10 00:36:39;;;;;;;2.50;1.43;;;;;;;;;;10266481;28;20487;-63
2021/05/10 00:41:37;;;;;;;1.20;0.85;;;;;;;;;;10254227;28;20029;-64
2021/05/10 00:46:35;;;;;;;2.37;1.20;;;;;;;;;;10250575;28;20034;-64
2021/05/10 00:51:33;;;;;;;1.63;1.38;;;;;;;;;;10264684;28;20041;-65
2021/05/10 00:56:30;;;;;;;1.03;1.00;;;;;;;;;;10246673;28;20127;-66
2021/05/10 01:01:28;;;;;;;0.97;0.87;;;;;;;;;;10244298;28;20124;-66
2021/05/10 01:06:25;;;;;;;0.77;0.67;;;;;;;;;;10266714;28;20481;-66
2021/05/10 01:11:23;;;;;;;2.77;1.27;;;;;;;;;;10265982;28;20038;-67
2021/05/10 01:16:20;;;;;;;1.77;0.97;;;;;;;;;;10241034;28;20566;-65
2021/05/10 01:21:18;;;;;;;2.43;1.10;;;;;;;;;;10270591;28;20018;-66
2021/05/10 01:26:16;;;;;;;;;;;;;;;;;;10256814;28;20389;-66
2021/05/10 01:31:15;;;;;;;2.15;0.90;;;;;;;;;;10276734;28;19912;-65
2021/05/10 01:36:13;;;;;;;7.68;1.30;;;;;;;;;;10245432;28;20061;-65
2021/05/10 01:41:11;;;;;;;5.43;0.97;;;;;;;;;;10248483;28;20538;-66
2021/05/10 01:46:09;;;;;;;;;;;;;;;;;;10269793;28;20525;-65
2021/05/10 01:51:06;;;;;;;0.63;0.63;;;;;;;;;;10259184;28;20087;-65
2021/05/10 01:56:04;;;;;;;1.33;1.13;;;;;;;;;;10269313;28;20129;-65
2021/05/10 02:01:01;;;;;;;1.43;1.33;;;;;;;;;;10251772;28;20034;-65
2021/05/10 02:05:59;;;;;;;2.53;1.37;;;;;;;;;;10249230;28;20582;-66
2021/05/10 02:10:56;;;;;;;1.20;1.10;;;;;;;;;;10304399;28;20046;-65
2021/05/10 02:15:55;;;;;;;2.13;1.93;;;;;;;;;;10268485;28;20059;-66
2021/05/10 02:20:52;;;;;;;1.10;0.98;;;;;;;;;;10248252;28;20037;-65
2021/05/10 02:25:51;;;;;;;4.50;3.37;;;;;;;;;;10260914;28;20040;-66
2021/05/10 02:30:52;;;;;;;7.32;3.65;;;;;;;;;;10241214;28;20885;-65
2021/05/10 02:35:51;;;;;;;5.60;2.47;;;;;;;;;;10271650;28;20138;-65
2021/05/10 02:40:49;;;;;;;3.53;1.30;;;;;;;;;;10246070;28;20467;-65
2021/05/10 02:45:46;;;;;;;1.85;1.73;;;;;;;;;;10248846;28;20132;-65
2021/05/10 02:50:44;;;;;;;2.83;1.00;;;;;;;;;;10254534;28;20109;-64
2021/05/10 02:55:41;;;;;;;1.07;0.90;;;;;;;;;;10250646;28;20034;-64
2021/05/10 03:00:39;;;;;;;4.03;1.33;;;;;;;;;;10250549;28;20030;-64
2021/05/10 03:05:38;;;;;;;2.87;1.90;;;;;;;;;;10259456;28;20053;-64
2021/05/10 03:10:36;;;;;;;2.92;1.77;;;;;;;;;;10234089;28;20072;-66
2021/05/10 03:15:34;;;;;;;1.13;1.07;;;;;;;;;;10237340;28;20430;-66
2021/05/10 03:20:31;;;;;;;3.20;1.93;;;;;;;;;;10258256;28;20034;-63
2021/05/10 03:25:29;;;;;;;0.60;0.60;;;;;;;;;;10239867;28;20034;-64
2021/05/10 03:30:26;;;;;;;3.33;1.90;;;;;;;;;;10212131;28;20034;-65
2021/05/10 03:35:24;;;;;;;1.93;1.50;;;;;;;;;;10208175;28;20121;-65
2021/05/10 03:40:21;;;;;;;1.77;1.13;;;;;;;;;;10241705;28;20356;-63
2021/05/10 03:45:19;;;;;;;2.63;1.50;;;;;;;;;;10216287;28;20433;-63
2021/05/10 03:50:20;;;;;;;3.37;1.37;;;;;;;;;;10215758;28;20183;-64
2021/05/10 03:55:25;;;;;;;3.70;1.48;;;;;;;;;;10242434;28;20096;-64
2021/05/10 04:00:23;;;;;;;1.50;1.30;;;;;;;;;;10223770;28;20042;-64
2021/05/10 04:10:40;;;;;;;1.67;1.08;;;;;;;;;;10229159;28;20042;-63
2021/05/10 04:15:37;;;;;;;2.33;1.20;;;;;;;;;;10236519;28;20042;-65
2021/05/10 04:20:35;;;;;;;1.20;1.10;;;;;;;;;;10242601;28;20038;-64
2021/05/10 04:25:32;;;;;;;1.90;1.00;;;;;;;;;;10236197;28;20047;-64
2021/05/10 04:30:30;;;;;;;1.60;1.20;;;;;;;;;;10242339;28;20072;-64
2021/05/10 04:35:28;;;;;;;1.10;1.00;;;;;;;;;;10228793;28;20073;-64
2021/05/10 04:40:25;;;;;;;2.53;1.27;;;;;;;;;;10229374;28;20039;-63
2021/05/10 04:45:23;;;;;;;1.90;1.17;;;;;;;;;;10232115;28;20046;-68
2021/05/10 04:50:20;;;;;;;2.30;1.17;;;;;;;;;;10259558;28;20045;-67
2021/05/10 04:55:18;;;;;;;1.20;1.10;;;;;;;;;;10250738;28;20497;-65
2021/05/10 05:00:17;;;;;;;1.75;1.20;;;;;;;;;;10275135;28;20555;-64
2021/05/10 05:05:14;;;;;;;1.73;1.08;;;;;;;;;;10235944;28;20147;-65
2021/05/10 05:10:12;;;;;;;3.30;1.13;;;;;;;;;;10256993;28;20100;-64
2021/05/10 05:15:10;;;;;;;0.93;0.90;;;;;;;;;;10249682;28;20142;-64
2021/05/10 05:20:11;;;;;;;2.83;0.82;;;;;;;;;;10236531;28;20696;-65
2021/05/10 05:25:09;;;;;;;1.70;1.20;;;;;;;;;;10225928;28;20034;-65
2021/05/10 05:30:07;;;;;;;2.67;1.52;;;;;;;;;;10236929;28;20045;-64
2021/05/10 05:35:05;;;;;;;1.23;1.13;;;;;;;;;;10224234;28;20416;-66
2021/05/10 05:40:03;;;;;;;1.30;1.20;;;;;;;;;;10239939;28;20041;-66
2021/05/10 05:45:01;;;;;;;1.13;0.98;;;;;;;;;;10241105;28;21046;-66
2021/05/10 05:50:05;;;;;;;0.88;0.88;;;;;;;;;;10246556;28;20025;-66
2021/05/10 05:55:09;;;;;;;1.90;0.98;;;;;;;;;;10223573;28;20033;-66
2021/05/10 06:00:07;;;;;;;1.42;0.90;;;;;;;;;;10222608;28;20073;-65
2021/05/10 06:05:11;;;;;;;3.38;1.20;;;;;;;;;;10248710;28;20038;-65
2021/05/10 06:10:10;;;;;;;1.02;0.85;;;;;;;;;;10232487;28;20034;-65
2021/05/10 06:15:08;;;;;;;3.25;0.85;;;;;;;;;;10244098;28;20356;-65
2021/05/10 06:20:07;;;;;;;0.75;0.55;;;;;;;;;;10244461;28;20446;-65
2021/05/10 06:25:06;;;;;;;1.30;1.15;;;;;;;;;;10234229;28;20044;-64
2021/05/10 06:30:03;;;;;;;;;;;;;;;;;;10251739;28;20065;-65
2021/05/10 06:35:00;;;;;;;2.60;0.97;;;;;;;;;;10240393;28;20373;-66
2021/05/10 06:39:58;;;;;;;1.70;0.93;;;;;;;;;;10216995;28;20034;-64
2021/05/10 06:44:57;;;;;;;1.70;0.93;;;;;;;;;;10247731;28;20037;-64
2021/05/10 06:50:00;;;;;;;;;;;;;;;;;;10227753;28;20038;-64
2021/05/10 06:54:57;;;;;;;1.45;0.88;;;;;;;;;;10216815;28;20465;-64
2021/05/10 06:59:55;;;;;;;0.97;0.90;;;;;;;;;;10235127;28;20034;-64
2021/05/10 07:04:59;;;;;;;3.33;1.20;;;;;;;;;;10238986;28;20076;-65
2021/05/10 07:09:56;;;;;;;1.23;0.98;;;;;;;;;;10238571;28;20514;-66
2021/05/10 07:14:54;;;;;;;1.60;0.90;;;;;;;;;;10220721;28;20057;-66
2021/05/10 07:19:51;;;;;;;1.47;0.80;;;;;;;;;;10223058;28;20084;-65
2021/05/10 07:24:49;;;;;;;3.73;1.10;;;;;;;;;;10238136;28;20524;-64
2021/05/10 07:29:46;;;;;;;2.93;0.80;;;;;;;;;;10214942;28;20053;-66
2021/05/10 07:34:44;;;;;;;2.17;1.15;;;;;;;;;;10230022;28;20689;-66
2021/05/10 07:39:41;;;;;;;0.70;0.70;;;;;;;;;;10239662;28;20130;-64
2021/05/10 07:44:39;;;;;;;0.73;0.70;;;;;;;;;;10242683;28;20379;-64
2021/05/10 07:49:36;;;;;;;;;;;;;;;;;;10243913;28;20096;-65
2021/05/10 07:54:34;;;;;;;3.17;0.80;;;;;;;;;;10231677;28;19952;-64
2021/05/10 07:59:31;;;;;;;2.10;0.80;;;;;;;;;;10237730;28;20054;-65
2021/05/10 08:04:29;;;;;;;1.42;0.77;;;;;;;;;;10229460;28;20088;-66
2021/05/10 08:09:26;;;;;;;;;;;;;;;;;;10229523;28;20038;-63
2021/05/10 08:14:24;;;;;;;0.97;0.73;;;;;;;;;;10261715;28;19924;-66
2021/05/10 08:19:21;;;;;;;;;;;;;;;;;;10236252;28;20033;-64
2021/05/10 08:24:19;;;;;;;3.13;0.75;;;;;;;;;;10271480;28;19913;-66
2021/05/10 08:29:16;;;;;;;;;;;;;;;;;;10234024;28;20580;-66
2021/05/10 08:34:14;;;;;;;2.97;1.23;;;;;;;;;;10267361;28;20012;-66
2021/05/10 08:39:12;;;;;;;;;;;;;;;;;;10273320;28;20395;-65
2021/05/10 08:44:10;;;;;;;0.60;0.57;;;;;;;;;;10239643;28;20012;-66
2021/05/10 08:49:08;;;;;;;0.40;0.40;;;;;;;;;;10230783;28;20041;-66
2021/05/10 08:54:19;;;;;;;1.27;0.70;;;;;;;;;;10240801;28;20077;-64
2021/05/10 08:59:21;;;;;;;1.65;0.85;;;;;;;;;;10259341;28;20864;-64
2021/05/10 09:04:28;;;;;;;1.35;0.70;;;;;;;;;;10242135;28;20046;-64
2021/05/10 09:09:25;;;;;;;1.88;0.75;;;;;;;;;;10249656;28;20521;-64
2021/05/10 09:14:30;;;;;;;4.32;0.75;;;;;;;;;;10243355;28;20764;-65
2021/05/10 09:19:44;;;;;;;0.60;0.60;;;;;;;;;;10237816;28;20553;-64
2021/05/10 09:24:46;;;;;;;2.05;0.60;;;;;;;;;;10249163;28;20034;-64
2021/05/10 09:29:44;;;;;;;2.55;0.60;;;;;;;;;;10259247;28;20139;-64
2021/05/10 09:34:41;;;;;;;1.07;0.63;;;;;;;;;;10243185;28;20172;-64
2021/05/10 09:39:39;;;;;;;0.85;0.40;;;;;;;;;;10233272;28;20793;-65
2021/05/10 09:44:40;;;;;;;1.52;0.50;;;;;;;;;;10241761;28;20336;-65
2021/05/10 09:49:44;;;;;;;0.32;0.32;;;;;;;;;;10239181;28;20097;-64
2021/05/10 09:54:41;;;;;;;3.10;0.70;;;;;;;;;;10248430;28;20049;-65
2021/05/10 09:59:39;;;;;;;1.00;0.60;;;;;;;;;;10246308;28;20918;-65
2021/05/10 10:04:48;;;;;;;1.75;0.73;;;;;;;;;;10218024;28;20036;-66
2021/05/10 10:09:46;;;;;;;0.35;0.35;;;;;;;;;;10237942;28;20576;-65
2021/05/10 10:14:43;;;;;;;2.03;0.40;;;;;;;;;;10248512;28;20029;-65
2021/05/10 10:19:42;;;;;;;1.60;0.70;;;;;;;;;;10248711;28;20046;-63
2021/05/10 10:24:40;;;;;;;0.75;0.57;;;;;;;;;;10213277;28;20041;-66
2021/05/10 10:29:38;;;;;;;0.80;0.40;;;;;;;;;;10272717;28;20049;-64
2021/05/10 10:34:41;;;;;;;0.22;0.20;;;;;;;;;;10245487;28;20034;-66
2021/05/10 10:39:48;;;;;;;3.25;0.70;;;;;;;;;;10235068;28;20062;-66
2021/05/10 10:44:52;;;;;;;0.73;0.40;;;;;;;;;;10223461;28;20076;-65
2021/05/10 10:49:57;;;;;;;3.38;0.60;;;;;;;;;;10244984;28;20107;-64
2021/05/10 10:55:14;;;;;;;2.33;0.63;;;;;;;;;;10213043;28;20603;-66
2021/05/10 11:00:16;;;;;;;1.23;0.30;;;;;;;;;;10232646;28;20030;-66
2021/05/10 11:05:14;;;;;;;4.30;0.60;;;;;;;;;;10263861;28;20645;-66
2021/05/10 11:10:33;;;;;;;0.85;0.30;;;;;;;;;;10249486;28;20469;-64
2021/05/10 11:15:41;;;;;;;1.93;0.30;;;;;;;;;;10258913;28;20130;-64
2021/05/10 11:20:48;;;;;;;0.40;0.20;;;;;;;;;;10200864;28;20336;-64
2021/05/10 11:25:45;;;;;;;1.90;0.35;;;;;;;;;;10237952;28;20040;-63
2021/05/10 11:30:58;;;;;;;1.75;0.82;;;;;;;;;;10226075;28;20052;-63
2021/05/10 11:35:56;;;;;;;1.17;0.43;;;;;;;;;;10233148;28;20038;-64
2021/05/10 11:40:57;;;;;;;0.63;0.10;;;;;;;;;;10207001;28;20046;-64
2021/05/10 11:45:54;;;;;;;1.35;0.43;;;;;;;;;;10234020;28;20034;-64
2021/05/10 11:50:52;;;;;;;0.28;0.28;;;;;;;;;;10253601;28;20034;-64
2021/05/10 11:55:58;;;;;;;1.35;0.10;;;;;;;;;;10258195;28;20105;-64
2021/05/10 12:00:56;;;;;;;1.05;0.25;;;;;;;;;;10230521;28;20104;-64
2021/05/10 12:05:53;;;;;;;3.20;0.60;;;;;;;;;;10231011;28;20041;-64
2021/05/10 12:10:51;;;;;;;1.67;0.60;;;;;;;;;;10238766;28;20799;-66
2021/05/10 12:15:48;;;;;;;1.38;0.90;;;;;;;;;;10238927;28;20066;-65
2021/05/10 12:20:46;;;;;;;2.70;0.50;;;;;;;;;;10235334;28;20458;-66
2021/05/10 12:25:49;;;;;;;0.43;0.32;;;;;;;;;;10227491;28;20030;-64
2021/05/10 12:30:47;;;;;;;2.58;0.50;;;;;;;;;;10240715;28;20449;-64
2021/05/10 12:35:53;;;;;;;3.55;0.40;;;;;;;;;;10228389;28;20065;-64
2021/05/10 12:40:51;;;;;;;2.90;0.47;;;;;;;;;;10240624;28;20069;-63
2021/05/10 12:45:55;;;;;;;0.30;0.28;;;;;;;;;;10235005;28;20040;-64
2021/05/10 12:51:04;;;;;;;1.52;0.75;;;;;;;;;;10230083;28;20453;-64
2021/05/10 12:56:07;;;;;;;0.32;0.32;;;;;;;;;;10221079;28;20066;-64
2021/05/10 13:01:12;;;;;;;0.93;0.63;;;;;;;;;;10234665;28;20389;-64
2021/05/10 13:06:13;;;;;;;0.20;0.20;;;;;;;;;;10219503;28;21016;-66
2021/05/10 13:11:19;;;;;;;0.88;0.43;;;;;;;;;;10244749;28;20045;-65
2021/05/10 13:16:23;;;;;;;1.95;0.40;;;;;;;;;;10246770;28;20485;-65
2021/05/10 13:31:50;;;;;;;1.17;0.40;;;;;;;;;;10240889;28;20053;-64
2021/05/10 13:36:50;;;;;;;5.43;0.47;;;;;;;;;;10245369;28;20558;-65
2021/05/10 13:41:56;;;;;;;0.10;0.10;;;;;;;;;;10224768;28;20068;-65
2021/05/10 13:46:55;;;;;;;1.17;0.43;;;;;;;;;;10235302;28;20091;-66
2021/05/10 13:51:53;;;;;;;0.10;0.10;;;;;;;;;;10241199;28;20045;-65
2021/05/10 13:56:53;;;;;;;0.98;0.35;;;;;;;;;;10250764;28;20040;-66
2021/05/10 14:01:51;;;;;;;0.00;0.00;;;;;;;;;;10235521;28;20578;-66
2021/05/10 14:06:48;;;;;;;;;;;;;;;;;;10230843;28;20320;-67
2021/05/10 14:11:46;;;;;;;1.27;0.30;;;;;;;;;;10250126;28;20191;-64
2021/05/10 14:16:44;;;;;;;;;;;;;;;;;;10240473;28;20087;-64
2021/05/10 14:26:55;;;;;;;1.33;0.45;;;;;;;;;;10252684;28;20029;-65
2021/05/10 14:31:52;;;;;;;;;;;;;;;;;;10228884;28;20496;-64
2021/05/10 14:36:50;;;;;;;1.83;0.20;;;;;;;;;;10260774;28;19926;-65
2021/05/10 14:41:48;;;;;;;;;;;;;;;;;;10238212;28;20029;-65
2021/05/10 14:46:45;;;;;;;0.33;0.10;;;;;;;;;;10275081;28;20292;-65
2021/05/10 14:51:43;;;;;;;;;;;;;;;;;;10258415;28;20048;-66
2021/05/10 14:56:42;;;;;;;1.00;0.93;;;;;;;;;;10247028;28;20331;-65
2021/05/10 15:01:39;;;;;;;0.70;0.50;;;;;;;;;;10245584;28;20117;-65
2021/05/10 15:06:37;;;;;;;;;;;;;;;;;;10221966;28;20034;-65
2021/05/10 15:11:34;;;;;;;0.60;0.60;;;;;;;;;;10253522;28;19951;-65
2021/05/10 15:16:32;;;;;;;0.55;0.55;;;;;;;;;;10263234;28;20057;-65
2021/05/10 15:21:29;;;;;;;;;;;;;;;;;;10259686;28;20113;-65
2021/05/10 15:26:27;;;;;;;2.20;0.85;;;;;;;;;;10256801;28;20008;-66
2021/05/10 15:31:24;;;;;;;;;;;;;;;;;;10246551;28;20030;-67
2021/05/10 15:36:22;;;;;;;1.20;0.27;;;;;;;;;;10302256;28;19946;-66
2021/05/10 15:41:20;;;;;;;0.57;0.50;;;;;;;;;;10245789;28;20029;-67
2021/05/10 15:46:17;;;;;;;;;;;;;;;;;;10261470;28;20033;-67
2021/05/10 15:51:15;;;;;;;4.40;1.40;;;;;;;;;;10291161;28;20000;-66
2021/05/10 15:56:12;;;;;;;;;;;;;;;;;;10248260;28;20123;-66
2021/05/10 16:01:09;;;;;;;2.28;1.20;;;;;;;;;;10231714;28;19963;-66
2021/05/10 16:06:07;;;;;;;2.58;0.60;;;;;;;;;;10244652;28;20502;-67
2021/05/10 16:11:06;;;;;;;;;;;;;;;;;;10241963;28;20034;-67
2021/05/10 16:16:03;;;;;;;2.42;1.05;;;;;;;;;;10263245;28;19917;-67
2021/05/10 16:21:01;;;;;;;1.00;0.60;;;;;;;;;;10225472;28;20036;-65
2021/05/10 16:25:58;;;;;;;;;;;;;;;;;;10214175;28;20045;-65
2021/05/10 16:30:56;;;;;;;2.07;1.37;;;;;;;;;;10248803;28;19918;-65
2021/05/10 16:35:54;;;;;;;2.28;1.10;;;;;;;;;;10227695;28;20494;-65
2021/05/10 16:40:51;;;;;;;;;;;;;;;;;;10245002;28;20026;-65
2021/05/10 16:45:50;;;;;;;0.80;0.45;;;;;;;;;;10240036;28;19913;-65
2021/05/10 16:50:48;;;;;;;1.77;0.80;;;;;;;;;;10242352;28;20045;-65
2021/05/10 16:55:45;;;;;;;;;;;;;;;;;;10225451;28;20049;-65
2021/05/10 17:00:43;;;;;;;1.90;0.63;;;;;;;;;;10256191;28;19929;-65
2021/05/10 17:05:40;;;;;;;2.42;1.52;;;;;;;;;;10240943;28;20397;-65
2021/05/10 17:10:38;;;;;;;;;;;;;;;;;;10220405;28;20517;-66
2021/05/10 17:15:35;;;;;;;2.77;1.33;;;;;;;;;;10287380;28;19913;-64
2021/05/10 17:20:33;;;;;;;;;;;;;;;;;;10235124;28;20335;-64
2021/05/10 17:25:30;;;;;;;4.78;1.67;;;;;;;;;;10266442;28;20376;-62
2021/05/10 17:30:31;;;;;;;;;;;;;;;;;;10221748;28;20022;-62
2021/05/10 17:35:28;;;;;;;3.72;1.90;;;;;;;;;;10241656;28;19929;-63
2021/05/10 17:40:26;;;;;;;;;;;;;;;;;;10220847;28;20033;-63
2021/05/10 17:45:24;;;;;;;0.20;0.20;;;;;;;;;;10268415;28;19917;-66
2021/05/10 17:50:21;;;;;;;;;;;;;;;;;;10243065;28;20513;-65
2021/05/10 17:55:19;;;;;;;0.47;0.47;;;;;;;;;;10267857;28;20394;-65
2021/05/10 18:00:19;;;;;;;0.10;0.10;;;;;;;;;;10241697;28;20453;-66
2021/05/10 18:05:16;;;;;;;0.40;0.40;;;;;;;;;;10227729;28;20284;-65
2021/05/10 18:10:14;;;;;;;2.08;0.65;;;;;;;;;;10235016;28;20485;-64
2021/05/10 18:15:13;;;;;;;0.38;0.35;;;;;;;;;;10239908;28;20034;-65
2021/05/10 18:20:12;;;;;;;0.30;0.30;;;;;;;;;;10218445;28;20045;-67
2021/05/10 18:25:10;;;;;;;0.35;0.30;;;;;;;;;;10241539;28;20045;-66
2021/05/10 18:30:08;;;;;;;1.05;0.75;;;;;;;;;;10239878;28;20103;-67
2021/05/10 18:35:07;;;;;;;0.40;0.30;;;;;;;;;;10259740;28;20414;-63
2021/05/10 18:40:06;;;;;;;0.40;0.35;;;;;;;;;;10216612;28;20077;-67
2021/05/10 18:45:06;;;;;;;1.83;0.40;;;;;;;;;;10226688;28;20027;-67
2021/05/10 18:50:05;;;;;;;0.70;0.70;;;;;;;;;;10256227;28;20453;-66
2021/05/10 18:55:03;;;;;;;2.53;0.90;;;;;;;;;;10245232;28;20041;-66
2021/05/10 19:00:01;;;;;;;0.90;0.60;;;;;;;;;;10210660;28;20034;-66
2021/05/10 19:04:58;;;;;;;0.85;0.57;;;;;;;;;;10234966;28;20133;-67
2021/05/10 19:09:56;;;;;;;0.37;0.37;;;;;;;;;;10236223;28;20367;-67
2021/05/10 19:14:53;;;;;;;3.00;0.63;;;;;;;;;;10228140;28;20470;-66
2021/05/10 19:19:51;;;;;;;1.43;0.60;;;;;;;;;;10223075;28;20037;-67
2021/05/10 19:24:49;;;;;;;1.73;0.60;;;;;;;;;;10211409;28;20038;-67
2021/05/10 19:29:47;;;;;;;1.65;0.75;;;;;;;;;;10234142;28;20506;-65
2021/05/10 19:34:45;;;;;;;0.30;0.20;;;;;;;;;;10242225;28;20115;-65
2021/05/10 19:39:43;;;;;;;0.95;0.60;;;;;;;;;;10221968;28;20806;-65
2021/05/10 19:44:43;;;;;;;0.68;0.50;;;;;;;;;;10220468;28;20043;-65
2021/05/10 20:05:29;;;;;;;1.40;0.70;;;;;;;;;;10230821;28;20050;-67
2021/05/10 20:10:27;;;;;;;0.40;0.40;;;;;;;;;;10233603;28;20046;-65
2021/05/10 20:15:24;;;;;;;1.07;0.50;;;;;;;;;;10219148;28;20104;-67
2021/05/10 20:20:22;;;;;;;1.47;0.80;;;;;;;;;;10239316;28;20032;-67
2021/05/10 20:25:19;;;;;;;1.50;0.40;;;;;;;;;;10270441;28;20058;-67
2021/05/10 20:30:18;;;;;;;3.73;2.40;;;;;;;;;;10233003;28;20031;-66
2021/05/10 20:35:15;;;;;;;4.20;2.17;;;;;;;;;;10228680;28;20368;-67
2021/05/10 20:40:13;;;;;;;3.97;2.30;;;;;;;;;;10255920;28;20052;-66
2021/05/10 20:45:10;;;;;;;2.97;2.33;;;;;;;;;;10222450;28;20066;-66
2021/05/10 20:50:08;;;;;;;2.50;2.08;;;;;;;;;;10241483;28;20049;-66
2021/05/10 20:55:06;;;;;;;4.88;2.47;;;;;;;;;;10246159;28;20038;-66
2021/05/10 21:00:04;;;;;;;4.05;2.67;;;;;;;;;;10251289;28;20037;-67
2021/05/10 21:05:02;;;;;;;5.60;2.75;;;;;;;;;;10263306;28;20512;-66
2021/05/10 21:10:00;;;;;;;5.13;2.80;;;;;;;;;;10259684;28;20041;-67
2021/05/10 21:14:57;;;;;;;5.97;3.53;;;;;;;;;;10248754;28;20497;-66
2021/05/10 21:19:55;;;;;;;3.00;2.70;;;;;;;;;;10242158;28;20039;-66
2021/05/10 21:24:53;;;;;;;6.03;2.80;;;;;;;;;;10230512;28;20056;-66
2021/05/10 21:29:53;;;;;;;1.42;1.27;;;;;;;;;;10243279;28;20033;-66
2021/05/10 21:34:50;;;;;;;1.08;0.68;;;;;;;;;;10255542;28;20099;-67
2021/05/10 21:39:48;;;;;;;1.00;0.93;;;;;;;;;;10243459;28;20099;-65
2021/05/10 21:44:45;;;;;;;1.70;0.87;;;;;;;;;;10245975;28;20041;-65
2021/05/10 21:49:43;;;;;;;2.67;0.57;;;;;;;;;;10229729;28;20038;-66
2021/05/10 21:54:40;;;;;;;0.97;0.60;;;;;;;;;;10235611;28;20616;-64
2021/05/10 21:59:38;;;;;;;0.83;0.60;;;;;;;;;;10249127;28;20038;-65
2021/05/10 22:04:35;;;;;;;1.50;0.90;;;;;;;;;;10232896;28;20038;-64
2021/05/10 22:09:33;;;;;;;1.20;0.87;;;;;;;;;;10243129;28;20505;-64
2021/05/10 22:14:30;;;;;;;1.93;0.77;;;;;;;;;;10244176;28;20042;-64
2021/05/10 22:19:28;;;;;;;1.25;1.15;;;;;;;;;;10225278;28;20038;-64
2021/05/10 22:24:28;;;;;;;1.60;0.93;;;;;;;;;;10242195;28;20502;-64
2021/05/10 22:29:25;;;;;;;0.25;0.20;;;;;;;;;;10251759;28;20033;-63
2021/05/10 22:34:23;;;;;;;0.70;0.53;;;;;;;;;;10225602;28;20030;-66
2021/05/10 22:39:44;;;;;;;1.25;0.73;;;;;;;;;;10246810;28;20041;-66
2021/05/10 22:44:54;;;;;;;1.50;1.13;;;;;;;;;;10272699;28;20401;-65
2021/05/10 23:06:27;;;;;;;0.30;0.30;;;;;;;;;;10244058;28;20527;-65
2021/05/10 23:21:17;;;;;;;1.13;0.73;;;;;;;;;;10266163;28;20037;-64
2021/05/10 23:26:15;;;;;;;1.23;0.57;;;;;;;;;;10241173;28;20029;-65
2021/05/10 23:31:13;;;;;;;0.97;0.70;;;;;;;;;;10253683;28;20048;-65
2021/05/10 23:36:10;;;;;;;2.05;0.90;;;;;;;;;;10253699;28;20518;-65
2021/05/10 23:41:07;;;;;;;1.27;0.73;;;;;;;;;;10240612;28;20036;-66
2021/05/10 23:46:05;;;;;;;2.47;1.17;;;;;;;;;;10240375;28;20037;-65
2021/05/10 23:51:09;;;;;;;1.33;1.10;;;;;;;;;;10262811;28;20040;-65
2021/05/10 23:56:07;;;;;;;3.00;0.93;;;;;;;;;;10238644;28;20734;-65
